createdAt,value
2023-02-15T00:02:08.051Z,2.00
2023-02-15T00:04:51.178Z,1.87
2023-02-15T00:07:20.699Z,1.71
2023-02-15T00:09:49.661Z,1.64
2023-02-15T00:12:18.178Z,1.57
2023-02-15T00:14:47.553Z,1.52
2023-02-15T00:17:15.343Z,1.48
2023-02-15T00:19:43.196Z,1.46
2023-02-15T00:22:11.294Z,1.53
2023-02-15T00:24:39.048Z,1.52
2023-02-15T00:27:07.069Z,1.42
2023-02-15T00:29:34.838Z,1.31
2023-02-15T00:32:04.041Z,1.34
2023-02-15T00:34:31.795Z,1.40
2023-02-15T00:36:59.829Z,1.40
2023-02-15T00:39:28.233Z,1.41
2023-02-15T00:41:56.075Z,1.41
2023-02-15T00:44:23.859Z,1.41
2023-02-15T00:46:51.663Z,1.32
2023-02-15T00:49:20.799Z,1.23
2023-02-15T00:51:49.350Z,1.18
2023-02-15T00:54:17.132Z,1.18
2023-02-15T00:56:44.915Z,1.18
2023-02-15T00:59:12.689Z,1.17
2023-02-15T01:01:40.787Z,1.17
2023-02-15T01:04:08.653Z,1.18
2023-02-15T01:06:37.887Z,1.21
2023-02-15T01:09:05.745Z,1.22
2023-02-15T01:11:33.515Z,1.24
2023-02-15T01:14:01.314Z,1.22
2023-02-15T01:16:30.868Z,1.20
2023-02-15T01:19:00.248Z,1.21
2023-02-15T01:21:28.405Z,1.14
2023-02-15T01:23:57.589Z,1.15
2023-02-15T01:26:25.370Z,1.16
2023-02-15T01:28:53.125Z,1.12
2023-02-15T01:31:23.013Z,1.05
2023-02-15T01:33:51.334Z,1.00
2023-02-15T01:36:19.442Z,0.98
2023-02-15T01:38:47.697Z,0.94
2023-02-15T01:41:24.944Z,0.95
2023-02-15T01:43:56.681Z,0.84
2023-02-15T01:46:29.546Z,0.87
2023-02-15T01:49:03.074Z,0.85
2023-02-15T01:51:35.438Z,0.73
2023-02-15T01:54:07.373Z,0.72
2023-02-15T01:56:40.244Z,0.66
2023-02-15T01:59:11.500Z,0.56
2023-02-15T02:01:40.237Z,0.56
2023-02-15T02:04:14.804Z,0.51
2023-02-15T02:06:43.206Z,0.38
2023-02-15T02:09:11.491Z,0.40
2023-02-15T02:11:42.351Z,0.45
2023-02-15T02:14:13.946Z,0.47
2023-02-15T02:16:50.831Z,0.48
2023-02-15T02:20:05.313Z,0.46
2023-02-15T02:23:12.722Z,0.35
2023-02-15T02:26:26.689Z,0.26
2023-02-15T02:29:38.733Z,0.09
2023-02-15T02:32:35.238Z,0.02
2023-02-15T02:35:13.461Z,-0.04
2023-02-15T02:37:50.087Z,-0.08
2023-02-15T02:40:24.626Z,-0.08
2023-02-15T02:43:01.530Z,-0.03
2023-02-15T02:45:38.393Z,0.02
2023-02-15T02:48:12.525Z,0.05
2023-02-15T02:50:43.214Z,0.05
2023-02-15T02:53:11.838Z,0.05
2023-02-15T02:55:46.045Z,0.07
2023-02-15T02:58:19.265Z,0.06
2023-02-15T03:00:50.779Z,0.07
2023-02-15T03:03:25.010Z,0.08
2023-02-15T03:05:57.865Z,0.07
2023-02-15T03:08:32.421Z,0.09
2023-02-15T03:11:03.354Z,0.09
2023-02-15T03:13:31.967Z,0.06
2023-02-15T03:16:15.553Z,0.02
2023-02-15T03:18:53.611Z,-0.01
2023-02-15T03:21:29.892Z,-0.09
2023-02-15T03:24:02.770Z,-0.19
2023-02-15T03:26:32.437Z,-0.23
2023-02-15T03:29:03.550Z,-0.20
2023-02-15T03:31:34.267Z,-0.16
2023-02-15T03:34:06.160Z,-0.13
2023-02-15T03:36:41.248Z,-0.15
2023-02-15T03:39:15.886Z,-0.14
2023-02-15T03:41:50.414Z,-0.16
2023-02-15T03:44:24.439Z,-0.21
2023-02-15T03:46:58.506Z,-0.18
2023-02-15T03:49:30.763Z,-0.17
2023-02-15T03:52:02.074Z,-0.24
2023-02-15T03:54:44.533Z,-0.27
2023-02-15T03:57:31.585Z,-0.28
2023-02-15T04:00:19.619Z,-0.26
2023-02-15T04:03:12.016Z,-0.26
2023-02-15T04:05:40.735Z,-0.29
2023-02-15T04:08:10.595Z,-0.28
2023-02-15T04:10:57.168Z,-0.25
2023-02-15T04:13:33.235Z,-0.23
2023-02-15T04:16:07.364Z,-0.24
2023-02-15T04:18:56.794Z,-0.30
2023-02-15T04:21:43.984Z,-0.33
2023-02-15T04:24:31.070Z,-0.38
2023-02-15T04:26:59.187Z,-0.44
2023-02-15T04:29:28.952Z,-0.44
2023-02-15T04:31:58.822Z,-0.41
2023-02-15T04:34:27.252Z,-0.37
2023-02-15T04:36:55.044Z,-0.29
2023-02-15T04:39:24.411Z,-0.30
2023-02-15T04:41:52.197Z,-0.37
2023-02-15T04:44:19.992Z,-0.41
2023-02-15T04:46:47.979Z,-0.49
2023-02-15T04:49:15.758Z,-0.54
2023-02-15T04:51:43.506Z,-0.62
2023-02-15T04:54:12.298Z,-0.67
2023-02-15T04:56:41.685Z,-0.67
2023-02-15T04:59:11.834Z,-0.68
2023-02-15T05:01:39.571Z,-0.72
2023-02-15T05:04:07.362Z,-0.75
2023-02-15T05:06:35.462Z,-0.76
2023-02-15T05:09:03.951Z,-0.75
2023-02-15T05:11:31.690Z,-0.73
2023-02-15T05:14:00.844Z,-0.73
2023-02-15T05:16:30.716Z,-0.69
2023-02-15T05:18:58.655Z,-0.66
2023-02-15T05:21:26.726Z,-0.60
2023-02-15T05:23:54.468Z,-0.58
2023-02-15T05:26:41.490Z,-0.59
2023-02-15T05:29:11.927Z,-0.57
2023-02-15T05:31:40.288Z,-0.53
2023-02-15T05:34:08.480Z,-0.52
2023-02-15T05:36:36.250Z,-0.52
2023-02-15T05:39:05.076Z,-0.51
2023-02-15T05:41:32.934Z,-0.54
2023-02-15T05:44:00.696Z,-0.59
2023-02-15T05:46:29.906Z,-0.59
2023-02-15T05:48:57.746Z,-0.60
2023-02-15T05:51:25.578Z,-0.65
2023-02-15T05:53:53.342Z,-0.70
2023-02-15T05:56:21.195Z,-0.71
2023-02-15T05:58:48.954Z,-0.70
2023-02-15T06:01:19.152Z,-0.73
2023-02-15T06:03:48.327Z,-0.74
2023-02-15T06:06:16.876Z,-0.75
2023-02-15T06:08:44.754Z,-0.75
2023-02-15T06:15:30.409Z,-0.74
2023-02-15T06:17:58.441Z,-0.75
2023-02-15T06:20:27.682Z,-0.79
2023-02-15T06:22:55.473Z,-0.87
2023-02-15T06:25:23.424Z,-0.90
2023-02-15T06:27:51.258Z,-0.98
2023-02-15T06:30:19.424Z,-0.99
2023-02-15T06:32:47.275Z,-1.00
2023-02-15T06:35:15.150Z,-0.97
2023-02-15T06:37:47.578Z,-0.98
2023-02-15T06:40:16.438Z,-0.99
2023-02-15T06:42:44.569Z,-0.94
2023-02-15T06:45:12.985Z,-0.94
2023-02-15T06:47:40.815Z,-0.94
2023-02-15T06:50:09.867Z,-0.88
2023-02-15T06:52:37.671Z,-0.83
2023-02-15T06:55:07.691Z,-0.76
2023-02-15T06:57:35.779Z,-0.70
2023-02-15T07:00:05.783Z,-0.68
2023-02-15T07:02:35.036Z,-0.62
2023-02-15T07:05:03.049Z,-0.58
2023-02-15T07:07:30.876Z,-0.54
2023-02-15T07:09:58.650Z,-0.48
2023-02-15T07:12:46.548Z,-0.40
2023-02-15T07:15:17.055Z,-0.37
2023-02-15T07:17:45.608Z,-0.34
2023-02-15T07:20:17.225Z,-0.30
2023-02-15T07:22:45.273Z,-0.19
2023-02-15T07:25:13.969Z,-0.08
2023-02-15T07:27:44.710Z,0.10
2023-02-15T07:30:15.065Z,0.21
2023-02-15T07:32:56.912Z,0.29
2023-02-15T07:35:24.732Z,0.38
2023-02-15T07:37:54.070Z,0.48
2023-02-15T07:40:24.215Z,0.57
2023-02-15T07:42:55.705Z,0.74
2023-02-15T07:45:24.542Z,0.90
2023-02-15T07:47:52.321Z,1.02
2023-02-15T07:50:20.316Z,1.18
2023-02-15T07:52:48.157Z,1.42
2023-02-15T07:55:16.304Z,1.61
2023-02-15T07:57:45.980Z,1.85
2023-02-15T08:00:18.281Z,1.94
2023-02-15T08:02:50.077Z,2.00
2023-02-15T08:05:19.267Z,2.25
2023-02-15T08:07:47.202Z,2.34
2023-02-15T08:10:35.056Z,2.61
2023-02-15T08:13:02.839Z,2.92
2023-02-15T08:15:32.513Z,3.35
2023-02-15T08:18:00.306Z,4.10
2023-02-15T08:20:28.293Z,4.89
2023-02-15T08:22:56.075Z,5.85
2023-02-15T08:25:23.941Z,6.86
2023-02-15T08:27:51.994Z,8.08
2023-02-15T08:30:19.888Z,9.89
2023-02-15T08:32:49.069Z,11.25
2023-02-15T08:35:17.300Z,11.73
2023-02-15T08:37:46.358Z,11.73
2023-02-15T08:40:15.039Z,10.65
2023-02-15T08:42:42.780Z,10.81
2023-02-15T08:45:10.882Z,9.87
2023-02-15T08:47:38.639Z,9.26
2023-02-15T08:50:08.718Z,9.32
2023-02-15T08:52:36.512Z,9.92
2023-02-15T08:55:04.345Z,10.13
2023-02-15T08:57:32.111Z,10.10
2023-02-15T09:00:00.043Z,10.11
2023-02-15T09:02:27.895Z,9.56
2023-02-15T09:04:56.460Z,8.75
2023-02-15T09:07:25.659Z,9.86
2023-02-15T09:09:53.943Z,10.20
2023-02-15T09:12:21.848Z,9.56
2023-02-15T09:14:49.660Z,9.41
2023-02-15T09:17:17.437Z,9.28
2023-02-15T09:19:45.215Z,9.75
2023-02-15T09:22:13.205Z,9.95
2023-02-15T09:24:42.380Z,9.83
2023-02-15T09:27:10.177Z,9.72
2023-02-15T09:29:38.196Z,9.69
2023-02-15T09:32:06.304Z,9.63
2023-02-15T09:34:35.204Z,10.05
2023-02-15T09:37:03.755Z,10.49
2023-02-15T09:39:31.644Z,10.60
2023-02-15T09:42:32.565Z,10.54
2023-02-15T09:45:18.195Z,10.45
2023-02-15T09:48:10.072Z,10.04
2023-02-15T09:50:48.028Z,10.42
2023-02-15T09:53:31.414Z,10.13
2023-02-15T09:56:05.803Z,10.26
2023-02-15T09:58:44.935Z,10.45
2023-02-15T10:01:22.398Z,10.12
2023-02-15T10:04:05.214Z,10.21
2023-02-15T10:06:43.075Z,10.49
2023-02-15T10:09:32.113Z,10.76
2023-02-15T10:12:09.353Z,10.54
2023-02-15T10:14:59.029Z,9.76
2023-02-15T10:17:41.604Z,10.15
2023-02-15T10:20:19.972Z,11.03
2023-02-15T10:23:08.790Z,10.87
2023-02-15T10:25:45.199Z,11.16
2023-02-15T10:28:19.182Z,11.31
2023-02-15T10:30:51.975Z,11.61
2023-02-15T10:33:37.976Z,11.90
2023-02-15T10:36:18.459Z,11.79
2023-02-15T10:38:54.651Z,12.29
2023-02-15T10:41:35.361Z,12.04
2023-02-15T10:44:24.994Z,11.66
2023-02-15T10:47:09.320Z,12.06
2023-02-15T10:49:55.619Z,12.67
2023-02-15T10:52:35.094Z,12.94
2023-02-15T10:55:13.702Z,12.89
2023-02-15T10:57:50.155Z,12.88
2023-02-15T11:00:24.706Z,12.92
2023-02-15T11:03:14.678Z,12.47
2023-02-15T11:05:50.119Z,12.58
2023-02-15T11:08:18.788Z,12.57
2023-02-15T11:10:52.505Z,13.02
2023-02-15T11:13:23.145Z,13.06
2023-02-15T11:15:55.903Z,12.88
2023-02-15T11:18:30.083Z,12.99
2023-02-15T11:21:04.215Z,13.35
2023-02-15T11:23:37.351Z,13.04
2023-02-15T11:26:12.550Z,12.91
2023-02-15T11:28:47.227Z,12.71
2023-02-15T11:31:19.459Z,12.70
2023-02-15T11:33:53.607Z,12.78
2023-02-15T11:36:24.519Z,13.13
2023-02-15T11:38:59.607Z,13.07
2023-02-15T11:41:30.777Z,12.89
2023-02-15T11:44:02.162Z,12.91
2023-02-15T11:46:30.026Z,13.08
2023-02-15T11:48:59.527Z,13.30
2023-02-15T11:51:29.808Z,13.18
2023-02-15T11:53:58.582Z,13.24
2023-02-15T11:56:27.898Z,13.44
2023-02-15T11:59:00.541Z,13.61
2023-02-15T12:01:33.160Z,13.78
2023-02-15T12:04:09.149Z,14.09
2023-02-15T12:06:43.293Z,13.97
2023-02-15T12:09:21.930Z,13.39
2023-02-15T12:11:51.021Z,13.48
2023-02-15T12:14:18.916Z,13.55
2023-02-15T12:16:49.321Z,13.87
2023-02-15T12:19:30.770Z,14.12
2023-02-15T12:22:00.352Z,14.22
2023-02-15T12:24:31.547Z,14.36
2023-02-15T12:27:01.939Z,14.40
2023-02-15T12:29:32.816Z,14.34
2023-02-15T12:32:01.209Z,14.36
2023-02-15T12:34:32.954Z,14.29
2023-02-15T12:37:10.181Z,14.13
2023-02-15T12:39:37.975Z,14.06
2023-02-15T12:42:16.182Z,13.83
2023-02-15T12:44:57.020Z,13.92
2023-02-15T12:47:30.504Z,14.13
2023-02-15T12:50:23.405Z,14.32
2023-02-15T12:52:53.393Z,14.54
2023-02-15T12:55:24.660Z,14.28
2023-02-15T12:58:07.636Z,14.50
2023-02-15T13:00:36.506Z,14.51
2023-02-15T13:03:04.941Z,14.27
2023-02-15T13:05:42.087Z,14.07
2023-02-15T13:08:14.318Z,14.25
2023-02-15T13:10:45.095Z,13.89
2023-02-15T13:13:21.657Z,14.04
2023-02-15T13:15:52.681Z,13.83
2023-02-15T13:18:28.929Z,13.65
2023-02-15T13:20:58.788Z,13.85
2023-02-15T13:23:29.883Z,13.91
2023-02-15T13:26:01.246Z,14.00
2023-02-15T13:28:40.201Z,14.11
2023-02-15T13:31:15.614Z,13.93
2023-02-15T13:33:47.731Z,13.75
2023-02-15T13:36:25.682Z,13.84
2023-02-15T13:39:06.195Z,13.90
2023-02-15T13:41:37.370Z,13.91
2023-02-15T13:44:17.147Z,13.92
2023-02-15T13:46:54.540Z,14.09
2023-02-15T13:49:39.768Z,14.15
2023-02-15T13:52:19.134Z,14.27
2023-02-15T13:55:06.872Z,14.37
2023-02-15T13:57:55.750Z,14.48
2023-02-15T14:00:24.777Z,14.35
2023-02-15T14:03:17.817Z,14.13
2023-02-15T14:06:06.196Z,14.08
2023-02-15T14:08:56.461Z,13.98
2023-02-15T14:11:33.558Z,13.98
2023-02-15T14:14:32.755Z,13.82
2023-02-15T14:17:09.823Z,13.81
2023-02-15T14:19:45.702Z,13.62
2023-02-15T14:22:25.080Z,13.56
2023-02-15T14:25:06.525Z,13.52
2023-02-15T14:27:47.770Z,13.40
2023-02-15T14:30:20.327Z,13.29
2023-02-15T14:32:51.502Z,13.26
2023-02-15T14:35:21.999Z,13.43
2023-02-15T14:37:56.898Z,13.42
2023-02-15T14:40:52.993Z,13.36
2023-02-15T14:43:29.205Z,13.28
2023-02-15T14:46:00.977Z,13.19
2023-02-15T14:48:34.280Z,12.91
2023-02-15T14:51:02.529Z,12.75
2023-02-15T14:53:39.354Z,12.72
2023-02-15T14:56:23.859Z,12.65
2023-02-15T14:59:17.630Z,12.51
2023-02-15T15:01:57.029Z,12.44
2023-02-15T15:04:30.018Z,12.40
2023-02-15T15:07:09.948Z,12.44
2023-02-15T15:09:40.655Z,12.44
2023-02-15T15:12:32.507Z,12.41
2023-02-15T15:15:00.370Z,12.34
2023-02-15T15:18:00.481Z,12.34
2023-02-15T15:20:46.659Z,12.29
2023-02-15T15:23:43.931Z,12.28
2023-02-15T15:26:34.299Z,12.14
2023-02-15T15:29:04.317Z,12.20
2023-02-15T15:31:45.039Z,12.15
2023-02-15T15:34:45.619Z,12.06
2023-02-15T15:37:43.612Z,11.99
2023-02-15T15:40:37.299Z,11.94
2023-02-15T15:43:42.238Z,12.00
2023-02-15T15:46:31.765Z,11.96
2023-02-15T15:49:03.554Z,11.87
2023-02-15T15:51:34.146Z,11.88
2023-02-15T15:54:04.903Z,11.85
2023-02-15T15:56:35.833Z,11.77
2023-02-15T15:59:06.906Z,11.77
2023-02-15T16:01:42.410Z,11.72
2023-02-15T16:04:15.028Z,11.75
2023-02-15T16:06:45.718Z,11.72
2023-02-15T16:09:18.381Z,11.63
2023-02-15T16:11:47.579Z,11.50
2023-02-15T16:14:18.461Z,11.36
2023-02-15T16:16:54.458Z,11.26
2023-02-15T16:19:29.640Z,11.23
2023-02-15T16:22:01.034Z,11.01
2023-02-15T16:24:49.046Z,10.93
2023-02-15T16:27:29.553Z,10.90
2023-02-15T16:29:57.547Z,10.92
2023-02-15T16:32:29.723Z,10.91
2023-02-15T16:35:00.213Z,10.86
2023-02-15T16:37:29.779Z,10.77
2023-02-15T16:39:57.730Z,10.79
2023-02-15T16:42:26.448Z,10.68
2023-02-15T16:44:57.584Z,10.65
2023-02-15T16:47:30.469Z,10.61
2023-02-15T16:50:01.196Z,10.57
2023-02-15T16:52:30.736Z,10.53
2023-02-15T16:55:00.141Z,10.48
2023-02-15T16:57:31.884Z,10.29
2023-02-15T17:00:04.218Z,10.10
2023-02-15T17:02:55.202Z,10.01
2023-02-15T17:05:25.021Z,9.98
2023-02-15T17:08:08.147Z,9.78
2023-02-15T17:10:38.316Z,9.76
2023-02-15T17:13:11.623Z,9.75
2023-02-15T17:15:41.346Z,9.76
2023-02-15T17:18:16.340Z,9.79
2023-02-15T17:20:44.830Z,9.75
2023-02-15T17:23:27.868Z,9.76
2023-02-15T17:25:55.995Z,9.71
2023-02-15T17:28:26.439Z,9.51
2023-02-15T17:30:56.378Z,9.34
2023-02-15T17:33:30.052Z,9.33
2023-02-15T17:36:10.698Z,9.36
2023-02-15T17:38:39.830Z,9.32
2023-02-15T17:41:08.074Z,9.28
2023-02-15T17:43:35.883Z,9.22
2023-02-15T17:46:03.797Z,9.14
2023-02-15T17:48:36.480Z,9.07
2023-02-15T17:51:07.002Z,9.02
2023-02-15T17:53:35.435Z,9.03
2023-02-15T17:56:10.423Z,9.01
2023-02-15T17:58:39.249Z,8.95
2023-02-15T18:01:30.747Z,8.91
2023-02-15T18:04:17.505Z,8.86
2023-02-15T18:07:03.202Z,8.86
2023-02-15T18:09:48.318Z,8.84
2023-02-15T18:12:21.484Z,8.83
2023-02-15T18:14:49.799Z,8.81
2023-02-15T18:17:22.844Z,8.74
2023-02-15T18:19:54.131Z,8.67
2023-02-15T18:22:22.044Z,8.62
2023-02-15T18:24:50.854Z,8.60
2023-02-15T18:27:18.738Z,8.56
2023-02-15T18:29:46.487Z,8.47
2023-02-15T18:32:19.164Z,8.38
2023-02-15T18:34:49.502Z,8.33
2023-02-15T18:37:22.075Z,8.18
2023-02-15T18:39:54.081Z,8.18
2023-02-15T18:42:24.358Z,8.18
2023-02-15T18:44:56.309Z,8.12
2023-02-15T18:47:24.427Z,8.13
2023-02-15T18:49:52.829Z,8.01
2023-02-15T18:52:24.308Z,7.93
2023-02-15T18:54:55.143Z,7.84
2023-02-15T18:57:22.986Z,7.78
2023-02-15T18:59:50.855Z,7.71
2023-02-15T19:02:20.078Z,7.57
2023-02-15T19:04:47.959Z,7.47
2023-02-15T19:07:19.180Z,7.30
2023-02-15T19:09:51.708Z,7.19
2023-02-15T19:12:20.485Z,7.08
2023-02-15T19:14:48.302Z,6.98
2023-02-15T19:17:18.079Z,6.85
2023-02-15T19:19:46.044Z,6.82
2023-02-15T19:22:15.809Z,6.79
2023-02-15T19:24:46.840Z,6.78
2023-02-15T19:27:23.553Z,6.78
2023-02-15T19:29:51.920Z,6.74
2023-02-15T19:32:19.873Z,6.73
2023-02-15T19:34:47.790Z,6.71
2023-02-15T19:37:24.598Z,6.70
2023-02-15T19:39:52.870Z,6.66
2023-02-15T19:42:24.351Z,6.66
2023-02-15T19:44:52.311Z,6.69
2023-02-15T19:47:20.675Z,6.65
2023-02-15T19:49:49.601Z,6.52
2023-02-15T19:52:20.455Z,6.55
2023-02-15T19:54:50.226Z,6.54
2023-02-15T19:57:18.050Z,6.53
2023-02-15T19:59:47.578Z,6.55
2023-02-15T20:02:17.932Z,6.63
2023-02-15T20:04:45.839Z,6.67
2023-02-15T20:07:22.220Z,6.63
2023-02-15T20:09:50.114Z,6.55
2023-02-15T20:12:21.885Z,6.49
2023-02-15T20:14:51.238Z,6.40
2023-02-15T20:17:19.060Z,6.38
2023-02-15T20:19:47.087Z,6.36
2023-02-15T20:22:23.511Z,6.25
2023-02-15T20:24:52.376Z,6.21
2023-02-15T20:27:21.043Z,6.25
2023-02-15T20:29:50.456Z,6.23
2023-02-15T20:32:19.810Z,6.15
2023-02-15T20:34:47.776Z,6.08
2023-02-15T20:37:23.174Z,6.07
2023-02-15T20:39:52.129Z,6.04
2023-02-15T20:42:20.501Z,6.04
2023-02-15T20:44:48.297Z,6.00
2023-02-15T20:47:16.100Z,5.97
2023-02-15T20:49:45.257Z,5.97
2023-02-15T20:52:20.362Z,5.99
2023-02-15T20:54:48.302Z,6.01
2023-02-15T20:57:16.814Z,5.97
2023-02-15T20:59:44.652Z,6.03
2023-02-15T21:02:17.821Z,6.15
2023-02-15T21:04:47.939Z,6.23
2023-02-15T21:07:17.683Z,6.27
2023-02-15T21:09:45.955Z,6.28
2023-02-15T21:12:15.430Z,6.30
2023-02-15T21:14:43.816Z,6.29
2023-02-15T21:17:12.500Z,6.35
2023-02-15T21:19:41.198Z,6.34
2023-02-15T21:22:13.445Z,6.36
2023-02-15T21:24:47.766Z,6.36
2023-02-15T21:27:16.052Z,6.37
2023-02-15T21:29:43.801Z,6.38
2023-02-15T21:32:12.137Z,6.32
2023-02-15T21:34:40.931Z,6.27
2023-02-15T21:37:28.665Z,6.30
2023-02-15T21:39:56.514Z,6.30
2023-02-15T21:42:42.136Z,6.30
2023-02-15T21:45:33.089Z,6.29
2023-02-15T21:48:01.014Z,6.30
2023-02-15T21:50:58.348Z,6.29
2023-02-15T21:53:31.638Z,6.25
2023-02-15T21:56:01.252Z,6.23
2023-02-15T21:58:31.476Z,6.18
2023-02-15T22:01:01.598Z,6.14
2023-02-15T22:03:33.566Z,6.16
2023-02-15T22:06:02.580Z,6.16
2023-02-15T22:08:31.940Z,6.16
2023-02-15T22:10:59.786Z,6.17
2023-02-15T22:13:29.778Z,6.15
2023-02-15T22:15:58.326Z,6.10
2023-02-15T22:18:28.915Z,6.05
2023-02-15T22:20:59.406Z,5.99
2023-02-15T22:23:27.526Z,5.94
2023-02-15T22:26:00.466Z,5.90
2023-02-15T22:28:33.617Z,5.88
2023-02-15T22:31:02.452Z,5.88
2023-02-15T22:33:32.579Z,5.88
2023-02-15T22:36:01.132Z,5.87
2023-02-15T22:38:28.989Z,5.87
2023-02-15T22:41:03.707Z,5.84
2023-02-15T22:43:38.262Z,5.82
2023-02-15T22:46:08.263Z,5.82
2023-02-15T22:48:36.657Z,5.81
2023-02-15T22:51:04.980Z,5.83
2023-02-15T22:53:33.273Z,5.83
2023-02-15T22:56:07.386Z,5.86
2023-02-15T22:58:35.495Z,5.85
2023-02-15T23:01:03.620Z,5.84
2023-02-15T23:03:33.400Z,5.86
2023-02-15T23:06:01.260Z,5.82
2023-02-15T23:08:29.065Z,5.84
2023-02-15T23:10:57.833Z,5.82
2023-02-15T23:13:30.747Z,5.77
2023-02-15T23:16:00.926Z,5.75
2023-02-15T23:18:31.620Z,5.74
2023-02-15T23:21:01.755Z,5.71
2023-02-15T23:23:33.442Z,5.71
2023-02-15T23:26:04.198Z,5.70
2023-02-15T23:28:37.042Z,5.67
2023-02-15T23:31:15.921Z,5.67
2023-02-15T23:33:44.699Z,5.63
2023-02-15T23:36:25.541Z,5.63
2023-02-15T23:38:54.082Z,5.63
2023-02-15T23:41:24.509Z,5.61
2023-02-15T23:43:57.025Z,5.59
2023-02-15T23:46:28.277Z,5.59
2023-02-15T23:48:56.268Z,5.55
2023-02-15T23:51:30.594Z,5.53
2023-02-15T23:53:59.323Z,5.54
2023-02-15T23:56:27.420Z,5.52
2023-02-15T23:58:56.615Z,5.52
